createdAt,value
2022-12-06T00:01:18.706Z,99091.62
2022-12-06T00:03:54.791Z,99083.58
2022-12-06T00:06:28.547Z,99083.75
2022-12-06T00:08:58.436Z,99080.73
2022-12-06T00:11:32.081Z,99072.67
2022-12-06T00:14:04.742Z,99072.34
2022-12-06T00:16:36.548Z,99070.77
2022-12-06T00:19:07.701Z,99069.95
2022-12-06T00:21:39.851Z,99069.51
2022-12-06T00:24:13.015Z,99071.45
2022-12-06T00:26:45.452Z,99067.90
2022-12-06T00:29:18.513Z,99066.16
2022-12-06T00:31:50.267Z,99069.49
2022-12-06T00:34:21.336Z,99063.91
2022-12-06T00:36:52.085Z,99062.98
2022-12-06T00:39:22.604Z,99060.92
2022-12-06T00:41:55.838Z,99060.23
2022-12-06T00:44:26.437Z,99056.48
2022-12-06T00:46:57.076Z,99059.84
2022-12-06T00:49:28.044Z,99046.95
2022-12-06T00:51:58.968Z,99053.17
2022-12-06T00:54:29.794Z,99054.44
2022-12-06T00:57:00.359Z,99053.97
2022-12-06T00:59:30.867Z,99056.79
2022-12-06T01:02:01.446Z,99056.22
2022-12-06T01:04:32.034Z,99060.75
2022-12-06T01:07:02.871Z,99057.76
2022-12-06T01:09:33.509Z,99051.44
2022-12-06T01:12:04.321Z,99048.77
2022-12-06T01:14:35.293Z,99043.16
2022-12-06T01:17:06.279Z,99041.34
2022-12-06T01:19:37.059Z,99035.59
2022-12-06T01:22:08.018Z,99033.67
2022-12-06T01:24:38.720Z,99028.21
2022-12-06T01:27:09.546Z,99027.50
2022-12-06T01:29:40.626Z,99025.14
2022-12-06T01:32:11.364Z,99022.12
2022-12-06T01:34:43.562Z,99024.60
2022-12-06T01:37:14.283Z,99023.10
2022-12-06T01:39:44.899Z,99019.41
2022-12-06T01:42:16.705Z,99015.65
2022-12-06T01:44:50.066Z,99014.77
2022-12-06T01:47:27.737Z,99009.52
2022-12-06T01:50:02.196Z,99005.48
2022-12-06T01:52:37.206Z,98998.37
2022-12-06T01:55:11.894Z,98994.02
2022-12-06T01:57:43.006Z,98991.84
2022-12-06T02:00:15.465Z,98990.70
2022-12-06T02:02:47.216Z,98987.17
2022-12-06T02:05:19.006Z,98983.10
2022-12-06T02:07:50.512Z,98979.39
2022-12-06T02:10:21.916Z,98973.67
2022-12-06T02:12:58.280Z,98974.58
2022-12-06T02:15:39.279Z,98973.48
2022-12-06T02:18:17.153Z,98971.95
2022-12-06T02:20:58.700Z,98974.35
2022-12-06T02:23:49.550Z,98975.96
2022-12-06T02:26:33.761Z,98974.08
2022-12-06T02:29:34.462Z,98971.86
2022-12-06T02:32:11.438Z,98977.16
2022-12-06T02:34:48.021Z,98975.28
2022-12-06T02:37:24.930Z,98972.29
2022-12-06T02:40:01.326Z,98970.89
2022-12-06T02:42:39.893Z,98970.17
2022-12-06T02:45:16.761Z,98968.11
2022-12-06T02:47:48.421Z,98971.34
2022-12-06T02:50:21.025Z,98964.02
2022-12-06T02:52:55.309Z,98961.41
2022-12-06T02:55:27.520Z,98964.64
2022-12-06T02:57:58.668Z,98960.06
2022-12-06T03:00:38.742Z,98958.83
2022-12-06T03:03:25.625Z,98955.95
2022-12-06T03:06:35.589Z,98954.39
2022-12-06T03:09:19.698Z,98954.38
2022-12-06T03:12:00.849Z,98946.53
2022-12-06T03:14:39.324Z,98946.62
2022-12-06T03:17:17.117Z,98950.01
2022-12-06T03:19:55.299Z,98956.78
2022-12-06T03:22:33.433Z,98958.80
2022-12-06T03:25:09.007Z,98957.70
2022-12-06T03:27:42.116Z,98957.88
2022-12-06T03:30:15.931Z,98955.73
2022-12-06T03:32:47.532Z,98953.63
2022-12-06T03:35:23.771Z,98954.16
2022-12-06T03:38:01.511Z,98957.58
2022-12-06T03:40:36.537Z,98961.52
2022-12-06T03:43:08.904Z,98963.20
2022-12-06T03:45:47.611Z,98962.34
2022-12-06T03:48:22.255Z,98961.73
2022-12-06T03:50:58.702Z,98961.44
2022-12-06T03:53:29.557Z,98949.71
2022-12-06T03:56:00.955Z,98944.67
2022-12-06T03:58:31.938Z,98945.15
2022-12-06T04:01:04.974Z,98935.91
2022-12-06T04:03:36.404Z,98940.91
2022-12-06T04:06:10.350Z,98935.58
2022-12-06T04:08:41.493Z,98940.48
2022-12-06T04:11:12.271Z,98941.78
2022-12-06T04:13:42.984Z,98938.71
2022-12-06T04:16:27.470Z,98938.41
2022-12-06T04:18:58.712Z,98935.70
2022-12-06T04:21:47.339Z,98927.62
2022-12-06T04:24:19.203Z,98924.14
2022-12-06T04:26:50.060Z,98925.86
2022-12-06T04:29:38.734Z,98927.02
2022-12-06T04:32:27.288Z,98919.80
2022-12-06T04:35:15.865Z,98910.28
2022-12-06T04:38:04.101Z,98906.73
2022-12-06T04:40:36.507Z,98909.11
2022-12-06T04:43:24.746Z,98917.98
2022-12-06T04:45:55.738Z,98927.88
2022-12-06T04:48:26.633Z,98929.37
2022-12-06T04:50:57.367Z,98927.87
2022-12-06T04:53:28.011Z,98927.96
2022-12-06T04:55:59.022Z,98927.80
2022-12-06T04:58:29.727Z,98928.23
2022-12-06T05:01:00.493Z,98928.96
2022-12-06T05:03:31.444Z,98923.73
2022-12-06T05:06:02.307Z,98917.88
2022-12-06T05:08:33.353Z,98916.02
2022-12-06T05:11:04.309Z,98912.36
2022-12-06T05:13:34.950Z,98921.12
2022-12-06T05:16:07.971Z,98922.70
2022-12-06T05:18:39.278Z,98917.80
2022-12-06T05:21:14.843Z,98922.27
2022-12-06T05:23:45.480Z,98923.17
2022-12-06T05:26:18.407Z,98921.89
2022-12-06T05:28:49.997Z,98924.56
2022-12-06T05:31:21.865Z,98931.56
2022-12-06T05:33:53.177Z,98929.10
2022-12-06T05:36:26.508Z,98924.16
2022-12-06T05:38:58.067Z,98920.41
2022-12-06T05:41:28.760Z,98919.23
2022-12-06T05:43:59.437Z,98912.04
2022-12-06T05:46:30.155Z,98912.83
2022-12-06T05:49:01.118Z,98913.98
2022-12-06T05:51:31.856Z,98911.23
2022-12-06T05:54:05.181Z,98906.10
2022-12-06T05:56:36.325Z,98902.30
2022-12-06T05:59:07.196Z,98903.41
2022-12-06T06:01:38.068Z,98904.90
2022-12-06T06:04:09.215Z,98904.07
2022-12-06T06:06:39.967Z,98908.88
2022-12-06T06:09:10.915Z,98902.27
2022-12-06T06:11:41.559Z,98895.09
2022-12-06T06:14:12.175Z,98894.17
2022-12-06T06:16:42.946Z,98893.27
2022-12-06T06:19:13.797Z,98893.20
2022-12-06T06:21:44.506Z,98895.63
2022-12-06T06:24:15.336Z,98891.75
2022-12-06T06:26:46.181Z,98890.29
2022-12-06T06:29:16.840Z,98886.17
2022-12-06T06:31:47.830Z,98884.55
2022-12-06T06:34:20.507Z,98890.06
2022-12-06T06:36:51.307Z,98898.66
2022-12-06T06:39:22.104Z,98905.30
2022-12-06T06:41:53.166Z,98909.46
2022-12-06T06:44:23.900Z,98909.34
2022-12-06T06:46:54.862Z,98907.17
2022-12-06T06:49:25.478Z,98905.49
2022-12-06T06:51:56.141Z,98908.23
2022-12-06T06:54:28.083Z,98908.11
2022-12-06T06:56:59.438Z,98905.33
2022-12-06T06:59:30.557Z,98903.10
2022-12-06T07:02:01.777Z,98905.72
2022-12-06T07:04:32.529Z,98904.52
2022-12-06T07:07:03.293Z,98905.64
2022-12-06T07:09:34.040Z,98906.69
2022-12-06T07:12:04.950Z,98909.64
2022-12-06T07:14:36.378Z,98911.79
2022-12-06T07:17:07.134Z,98912.16
2022-12-06T07:19:37.916Z,98914.84
2022-12-06T07:22:10.499Z,98915.88
2022-12-06T07:24:43.598Z,98917.46
2022-12-06T07:27:16.369Z,98921.94
2022-12-06T07:29:47.211Z,98918.30
2022-12-06T07:32:18.153Z,98915.37
2022-12-06T07:34:48.888Z,98916.11
2022-12-06T07:37:20.687Z,98912.63
2022-12-06T07:39:51.389Z,98911.15
2022-12-06T07:42:39.725Z,98911.11
2022-12-06T07:45:12.525Z,98910.64
2022-12-06T07:47:45.069Z,98916.29
2022-12-06T07:50:18.777Z,98915.59
2022-12-06T07:52:48.582Z,98915.36
2022-12-06T07:55:20.015Z,98912.00
2022-12-06T07:57:50.870Z,98917.23
2022-12-06T08:00:23.054Z,98915.22
2022-12-06T08:02:53.818Z,98914.45
2022-12-06T08:05:24.456Z,98915.01
2022-12-06T08:07:55.241Z,98917.18
2022-12-06T08:10:26.236Z,98915.98
2022-12-06T08:12:57.496Z,98912.36
2022-12-06T08:15:28.346Z,98916.52
2022-12-06T08:17:59.056Z,98914.19
2022-12-06T08:20:29.799Z,98915.85
2022-12-06T08:23:00.561Z,98913.86
2022-12-06T08:25:31.586Z,98919.14
2022-12-06T08:28:02.318Z,98915.23
2022-12-06T08:30:33.007Z,98916.14
2022-12-06T08:33:03.750Z,98916.31
2022-12-06T08:35:37.330Z,98919.31
2022-12-06T08:38:08.067Z,98922.01
2022-12-06T08:40:38.779Z,98924.48
2022-12-06T08:43:09.408Z,98924.33
2022-12-06T08:45:39.998Z,98924.83
2022-12-06T08:48:10.681Z,98927.22
2022-12-06T08:50:45.048Z,98921.14
2022-12-06T08:53:15.737Z,98927.20
2022-12-06T08:56:02.323Z,98928.14
2022-12-06T08:58:35.938Z,98931.85
2022-12-06T09:01:14.733Z,98935.88
2022-12-06T09:03:45.630Z,98938.73
2022-12-06T09:06:16.399Z,98937.00
2022-12-06T09:08:48.410Z,98941.95
2022-12-06T09:11:20.262Z,98940.38
2022-12-06T09:13:51.001Z,98937.35
2022-12-06T09:16:23.662Z,98936.86
2022-12-06T09:18:54.825Z,98935.88
2022-12-06T09:21:30.420Z,98939.07
2022-12-06T09:24:01.733Z,98938.04
2022-12-06T09:26:32.435Z,98938.69
2022-12-06T09:29:03.295Z,98946.73
2022-12-06T09:31:35.669Z,98942.45
2022-12-06T09:34:06.681Z,98943.23
2022-12-06T09:36:40.539Z,98945.88
2022-12-06T09:39:12.285Z,98942.52
2022-12-06T09:42:04.211Z,98941.79
2022-12-06T09:45:07.314Z,98937.44
2022-12-06T09:47:52.575Z,98939.30
2022-12-06T09:50:31.792Z,98938.63
2022-12-06T09:53:16.929Z,98935.94
2022-12-06T09:56:02.540Z,98936.67
2022-12-06T09:58:49.116Z,98933.10
2022-12-06T10:01:28.446Z,98927.52
2022-12-06T10:04:11.572Z,98924.26
2022-12-06T10:06:49.946Z,98921.18
2022-12-06T10:09:33.450Z,98921.21
2022-12-06T10:12:27.865Z,98921.47
2022-12-06T10:15:16.031Z,98924.97
2022-12-06T10:18:02.446Z,98916.65
2022-12-06T10:20:42.520Z,98910.51
2022-12-06T10:23:26.568Z,98905.98
2022-12-06T10:26:08.779Z,98905.00
2022-12-06T10:28:46.684Z,98901.51
2022-12-06T10:31:24.842Z,98898.26
2022-12-06T10:33:59.009Z,98898.27
2022-12-06T10:36:40.010Z,98902.48
2022-12-06T10:39:19.078Z,98898.73
2022-12-06T10:41:56.676Z,98899.23
2022-12-06T10:44:34.572Z,98898.05
2022-12-06T10:47:13.067Z,98896.58
2022-12-06T10:49:52.530Z,98894.73
2022-12-06T10:52:37.116Z,98889.08
2022-12-06T10:55:20.381Z,98887.77
2022-12-06T10:57:56.214Z,98886.31
2022-12-06T11:00:28.611Z,98885.86
2022-12-06T11:03:05.908Z,98885.22
2022-12-06T11:05:42.533Z,98885.45
2022-12-06T11:08:20.179Z,98885.55
2022-12-06T11:10:51.379Z,98885.59
2022-12-06T11:13:28.877Z,98884.64
2022-12-06T11:16:06.832Z,98884.58
2022-12-06T11:18:38.207Z,98879.70
2022-12-06T11:21:21.895Z,98876.06
2022-12-06T11:23:57.795Z,98877.00
2022-12-06T11:26:36.067Z,98875.31
2022-12-06T11:29:12.177Z,98875.48
2022-12-06T11:31:47.450Z,98873.63
2022-12-06T11:34:23.706Z,98871.84
2022-12-06T11:37:00.188Z,98867.55
2022-12-06T11:39:32.830Z,98872.52
2022-12-06T11:42:06.496Z,98875.46
2022-12-06T11:44:49.462Z,98876.83
2022-12-06T11:47:23.255Z,98874.05
2022-12-06T11:49:56.820Z,98871.52
2022-12-06T11:52:32.077Z,98874.00
2022-12-06T11:55:08.567Z,98869.63
2022-12-06T11:57:43.948Z,98871.75
2022-12-06T12:00:21.557Z,98869.29
2022-12-06T12:02:54.032Z,98873.41
2022-12-06T12:05:30.523Z,98879.31
2022-12-06T12:08:04.062Z,98877.92
2022-12-06T12:10:40.138Z,98877.77
2022-12-06T12:13:40.889Z,98879.34
2022-12-06T12:16:20.010Z,98879.45
2022-12-06T12:18:58.672Z,98876.80
2022-12-06T12:21:39.722Z,98876.77
2022-12-06T12:27:48.581Z,98874.55
2022-12-06T12:30:28.858Z,98874.11
2022-12-06T12:33:18.620Z,98868.21
2022-12-06T12:35:51.216Z,98868.75
2022-12-06T12:38:28.330Z,98870.75
2022-12-06T12:41:02.756Z,98869.66
2022-12-06T12:43:35.842Z,98866.48
2022-12-06T12:46:21.731Z,98862.95
2022-12-06T12:48:53.341Z,98860.38
2022-12-06T12:51:32.896Z,98859.23
2022-12-06T12:54:20.013Z,98861.04
2022-12-06T12:56:51.473Z,98861.05
2022-12-06T12:59:24.458Z,98856.80
2022-12-06T13:02:02.518Z,98861.54
2022-12-06T13:04:46.684Z,98862.02
2022-12-06T13:07:25.318Z,98861.18
2022-12-06T13:10:01.674Z,98863.07
2022-12-06T13:12:37.537Z,98863.59
2022-12-06T13:15:14.371Z,98866.98
2022-12-06T13:17:56.441Z,98869.92
2022-12-06T13:20:32.991Z,98872.44
2022-12-06T13:23:08.487Z,98864.77
2022-12-06T13:25:40.039Z,98872.99
2022-12-06T13:28:18.711Z,98872.77
2022-12-06T13:30:52.054Z,98866.71
2022-12-06T13:33:27.021Z,98863.94
2022-12-06T13:36:02.101Z,98863.50
2022-12-06T13:38:36.048Z,98868.50
2022-12-06T13:41:08.046Z,98864.78
2022-12-06T13:43:58.448Z,98860.30
2022-12-06T13:46:34.595Z,98864.22
2022-12-06T13:49:25.271Z,98865.06
2022-12-06T13:51:55.962Z,98863.91
2022-12-06T13:54:36.253Z,98864.54
2022-12-06T13:57:25.000Z,98862.98
2022-12-06T13:59:55.709Z,98863.38
2022-12-06T14:02:52.659Z,98861.19
2022-12-06T14:08:35.833Z,98852.52
2022-12-06T14:11:22.814Z,98852.86
2022-12-06T14:14:03.697Z,98849.72
2022-12-06T14:16:39.796Z,98847.41
2022-12-06T14:19:19.165Z,98846.80
2022-12-06T14:21:56.974Z,98845.05
2022-12-06T14:24:37.457Z,98842.52
2022-12-06T14:27:13.668Z,98844.31
2022-12-06T14:29:59.479Z,98843.27
2022-12-06T14:32:39.345Z,98837.79
2022-12-06T14:35:15.919Z,98839.33
2022-12-06T14:37:51.444Z,98839.14
2022-12-06T14:40:45.811Z,98833.04
2022-12-06T14:43:20.908Z,98832.58
2022-12-06T14:45:52.170Z,98828.86
2022-12-06T14:48:24.126Z,98827.57
2022-12-06T14:51:02.220Z,98824.11
2022-12-06T14:53:34.658Z,98823.80
2022-12-06T14:56:07.567Z,98826.97
2022-12-06T14:58:42.917Z,98821.95
2022-12-06T15:01:20.387Z,98821.77
2022-12-06T15:04:00.796Z,98819.31
2022-12-06T15:06:33.228Z,98822.41
2022-12-06T15:09:16.312Z,98824.11
2022-12-06T15:12:04.685Z,98827.52
2022-12-06T15:14:49.901Z,98825.66
2022-12-06T15:17:22.857Z,98827.10
2022-12-06T15:19:55.109Z,98827.04
2022-12-06T15:22:28.211Z,98828.96
2022-12-06T15:25:00.442Z,98832.20
2022-12-06T15:27:31.527Z,98824.67
2022-12-06T15:30:02.492Z,98831.77
2022-12-06T15:32:34.140Z,98831.96
2022-12-06T15:35:05.825Z,98829.30
2022-12-06T15:37:39.062Z,98832.08
2022-12-06T15:40:15.086Z,98830.18
2022-12-06T15:42:45.756Z,98832.36
2022-12-06T15:45:17.840Z,98828.30
2022-12-06T15:47:51.768Z,98824.75
2022-12-06T15:50:22.602Z,98826.11
2022-12-06T15:52:53.275Z,98823.95
2022-12-06T15:55:24.068Z,98821.77
2022-12-06T15:57:54.874Z,98823.50
2022-12-06T16:00:26.513Z,98819.84
2022-12-06T16:02:57.473Z,98818.61
2022-12-06T16:05:28.634Z,98822.11
2022-12-06T16:07:59.351Z,98820.30
2022-12-06T16:11:03.056Z,98817.26
2022-12-06T16:13:24.481Z,98818.59
2022-12-06T16:15:56.152Z,98817.59
2022-12-06T16:18:27.317Z,98813.48
2022-12-06T16:20:58.466Z,98811.92
2022-12-06T16:24:12.681Z,98810.09
2022-12-06T16:26:41.923Z,98809.02
2022-12-06T16:29:15.314Z,98809.83
2022-12-06T16:31:46.595Z,98809.89
2022-12-06T16:34:17.584Z,98809.86
2022-12-06T16:37:00.493Z,98811.66
2022-12-06T16:39:33.756Z,98809.46
2022-12-06T16:42:06.847Z,98809.16
2022-12-06T16:44:51.435Z,98806.60
2022-12-06T16:49:51.803Z,98798.27
2022-12-06T16:52:22.536Z,98795.92
2022-12-06T16:54:53.300Z,98797.56
2022-12-06T16:57:24.218Z,98793.34
2022-12-06T16:59:55.361Z,98792.05
2022-12-06T17:02:33.241Z,98787.98
2022-12-06T17:05:07.048Z,98793.96
2022-12-06T17:07:40.027Z,98787.73
2022-12-06T17:10:12.864Z,98783.92
2022-12-06T17:12:44.117Z,98786.63
2022-12-06T17:15:17.541Z,98784.05
2022-12-06T17:17:48.803Z,98784.61
2022-12-06T17:20:21.024Z,98784.23
2022-12-06T17:22:51.713Z,98780.71
2022-12-06T17:25:22.599Z,98783.55
2022-12-06T17:27:53.321Z,98781.06
2022-12-06T17:30:24.141Z,98774.83
2022-12-06T17:32:54.832Z,98776.30
2022-12-06T17:35:26.168Z,98775.30
2022-12-06T17:37:56.815Z,98776.68
2022-12-06T17:40:27.535Z,98777.35
2022-12-06T17:43:00.940Z,98773.48
2022-12-06T17:45:31.800Z,98777.48
2022-12-06T17:48:02.545Z,98774.98
2022-12-06T17:50:33.386Z,98776.33
2022-12-06T17:53:04.364Z,98777.48
2022-12-06T17:55:35.440Z,98774.60
2022-12-06T17:58:07.456Z,98772.73
2022-12-06T18:00:38.371Z,98773.21
2022-12-06T18:03:09.292Z,98771.41
2022-12-06T18:05:41.711Z,98772.58
2022-12-06T18:08:12.621Z,98771.41
2022-12-06T18:10:43.547Z,98771.13
2022-12-06T18:13:14.355Z,98761.61
2022-12-06T18:15:45.240Z,98765.39
2022-12-06T18:18:15.933Z,98765.45
2022-12-06T18:20:46.707Z,98763.89
2022-12-06T18:23:17.564Z,98763.50
2022-12-06T18:25:49.177Z,98762.55
2022-12-06T18:28:20.258Z,98764.29
2022-12-06T18:30:51.027Z,98761.14
2022-12-06T18:33:25.356Z,98756.69
2022-12-06T18:35:59.183Z,98763.28
2022-12-06T18:38:30.925Z,98761.70
2022-12-06T18:41:07.531Z,98761.58
2022-12-06T18:43:39.123Z,98761.20
2022-12-06T18:46:13.075Z,98756.40
2022-12-06T18:48:45.932Z,98754.11
2022-12-06T18:51:19.090Z,98753.98
2022-12-06T18:53:50.780Z,98752.05
2022-12-06T18:56:40.598Z,98752.38
2022-12-06T18:59:12.995Z,98750.53
2022-12-06T19:01:44.150Z,98751.36
2022-12-06T19:04:16.826Z,98746.90
2022-12-06T19:06:47.546Z,98748.13
2022-12-06T19:09:18.836Z,98749.95
2022-12-06T19:11:49.879Z,98741.18
2022-12-06T19:14:21.295Z,98753.79
2022-12-06T19:16:53.549Z,98753.27
2022-12-06T19:19:26.420Z,98757.89
2022-12-06T19:21:58.290Z,98755.14
2022-12-06T19:24:29.583Z,98758.29
2022-12-06T19:27:00.457Z,98758.08
2022-12-06T19:29:31.682Z,98761.16
2022-12-06T19:32:02.734Z,98762.19
2022-12-06T19:34:33.469Z,98762.52
2022-12-06T19:37:04.359Z,98758.98
2022-12-06T19:39:35.754Z,98755.52
2022-12-06T19:42:24.247Z,98755.94
2022-12-06T19:44:55.258Z,98752.61
2022-12-06T19:47:26.248Z,98754.54
2022-12-06T19:49:57.798Z,98757.19
2022-12-06T19:52:31.164Z,98754.01
2022-12-06T19:55:02.188Z,98759.84
2022-12-06T19:57:33.703Z,98760.18
2022-12-06T20:00:05.110Z,98760.67
2022-12-06T20:02:36.242Z,98757.83
2022-12-06T20:05:08.639Z,98757.91
2022-12-06T20:07:39.414Z,98754.92
2022-12-06T20:10:11.890Z,98755.04
2022-12-06T20:12:42.689Z,98750.36
2022-12-06T20:15:14.998Z,98752.89
2022-12-06T20:17:46.077Z,98752.61
2022-12-06T20:20:16.858Z,98760.50
2022-12-06T20:22:47.777Z,98762.56
2022-12-06T20:25:19.131Z,98758.95
2022-12-06T20:27:52.935Z,98759.14
2022-12-06T20:30:25.422Z,98758.86
2022-12-06T20:32:56.771Z,98758.48
2022-12-06T20:35:29.296Z,98754.38
2022-12-06T20:37:59.915Z,98752.46
2022-12-06T20:40:31.787Z,98752.73
2022-12-06T20:43:02.788Z,98759.07
2022-12-06T20:45:33.536Z,98757.50
2022-12-06T20:48:04.219Z,98761.84
2022-12-06T20:50:34.903Z,98764.45
2022-12-06T20:53:05.564Z,98762.36
2022-12-06T20:55:36.946Z,98763.20
2022-12-06T20:58:07.729Z,98766.81
2022-12-06T21:00:40.412Z,98762.86
2022-12-06T21:03:11.191Z,98770.77
2022-12-06T21:05:45.209Z,98767.35
2022-12-06T21:08:16.593Z,98766.52
2022-12-06T21:11:20.624Z,98767.18
2022-12-06T21:13:38.748Z,98767.77
2022-12-06T21:16:14.044Z,98766.83
2022-12-06T21:18:45.854Z,98770.73
2022-12-06T21:21:26.023Z,98772.35
2022-12-06T21:23:59.419Z,98770.04
2022-12-06T21:26:30.883Z,98768.09
2022-12-06T21:29:02.182Z,98767.89
2022-12-06T21:31:37.182Z,98772.85
2022-12-06T21:34:08.103Z,98769.84
2022-12-06T21:36:39.631Z,98774.06
2022-12-06T21:39:13.809Z,98774.92
2022-12-06T21:41:44.768Z,98773.05
2022-12-06T21:44:15.449Z,98777.88
2022-12-06T21:46:46.102Z,98775.27
2022-12-06T21:49:16.824Z,98775.01
2022-12-06T21:51:47.458Z,98775.20
2022-12-06T21:54:18.298Z,98774.66
2022-12-06T21:56:48.933Z,98775.55
2022-12-06T21:59:19.670Z,98774.02
2022-12-06T22:01:52.420Z,98775.17
2022-12-06T22:04:23.399Z,98773.08
2022-12-06T22:06:54.139Z,98771.13
2022-12-06T22:09:24.804Z,98764.81
2022-12-06T22:11:55.881Z,98768.06
2022-12-06T22:14:26.763Z,98766.64
2022-12-06T22:16:57.496Z,98763.64
2022-12-06T22:19:28.662Z,98766.89
2022-12-06T22:21:59.383Z,98766.23
2022-12-06T22:24:30.016Z,98763.52
2022-12-06T22:27:00.741Z,98763.79
2022-12-06T22:29:31.648Z,98760.72
2022-12-06T22:32:02.239Z,98760.00
2022-12-06T22:34:33.275Z,98760.69
2022-12-06T22:37:03.954Z,98763.23
2022-12-06T22:39:34.648Z,98763.36
2022-12-06T22:42:05.891Z,98759.33
2022-12-06T22:44:36.911Z,98758.89
2022-12-06T22:47:07.802Z,98759.20
2022-12-06T22:49:38.427Z,98758.93
2022-12-06T22:52:09.007Z,98752.64
2022-12-06T22:54:39.692Z,98756.55
2022-12-06T22:57:10.323Z,98753.63
2022-12-06T22:59:40.931Z,98751.74
2022-12-06T23:02:11.651Z,98752.84
2022-12-06T23:04:42.444Z,98755.11
2022-12-06T23:07:13.172Z,98752.52
2022-12-06T23:09:43.759Z,98751.30
2022-12-06T23:12:14.309Z,98752.52
2022-12-06T23:14:44.897Z,98751.73
2022-12-06T23:17:15.482Z,98753.75
2022-12-06T23:19:46.016Z,98751.30
2022-12-06T23:22:16.565Z,98751.23
2022-12-06T23:24:49.550Z,98751.24
2022-12-06T23:27:20.301Z,98749.20
2022-12-06T23:29:50.936Z,98748.64
2022-12-06T23:32:21.524Z,98749.33
2022-12-06T23:34:52.208Z,98748.76
2022-12-06T23:37:22.949Z,98747.56
2022-12-06T23:39:53.604Z,98746.08
2022-12-06T23:42:24.422Z,98745.11
2022-12-06T23:44:55.018Z,98745.34
2022-12-06T23:47:25.812Z,98738.66
2022-12-06T23:49:56.534Z,98739.37
2022-12-06T23:52:27.752Z,98742.33
2022-12-06T23:54:59.735Z,98740.65
2022-12-06T23:57:30.515Z,98739.89
